Time;durP1;ratioP1;P1;durP2;ratioP2;P2;SDS_P1;SDS_P2;PMS_P1;PMS_P2;Temp;Humidity;BMP_temperature;BMP_pressure;BME280_temperature;BME280_humidity;BME280_pressure;Samples;Min_cycle;Max_cycle;Signal;HPM_P1;HPM_P2
2022/07/21 00:01:01;;;;;;;0.70;0.40;;;21.70;99.90;;;;;;5073263;28;20506;-68
2022/07/21 00:03:26;;;;;;;0.50;0.50;;;21.70;99.90;;;;;;5036713;28;20059;-68
2022/07/21 00:05:52;;;;;;;2.08;0.43;;;21.80;99.90;;;;;;5056006;28;20045;-68
2022/07/21 00:08:17;;;;;;;0.38;0.38;;;21.80;99.90;;;;;;5060018;28;20045;-68
2022/07/21 00:10:43;;;;;;;6.88;2.03;;;21.80;99.90;;;;;;5047608;28;20036;-68
2022/07/21 00:13:09;;;;;;;1.40;0.85;;;21.90;99.90;;;;;;5065126;28;20036;-67
2022/07/21 00:15:34;;;;;;;3.30;0.95;;;21.70;99.90;;;;;;5069035;28;20047;-67
2022/07/21 00:18:00;;;;;;;0.77;0.77;;;21.80;99.90;;;;;;5069534;28;20407;-67
2022/07/21 00:20:33;;;;;;;0.65;0.65;;;21.60;99.90;;;;;;5070418;28;20033;-68
2022/07/21 00:22:59;;;;;;;0.38;0.38;;;21.60;99.90;;;;;;5063020;28;20048;-67
2022/07/21 00:25:25;;;;;;;1.17;0.45;;;21.40;99.90;;;;;;5057567;28;20056;-67
2022/07/21 00:27:50;;;;;;;2.60;1.05;;;21.40;99.90;;;;;;5059847;28;20044;-67
2022/07/21 00:30:16;;;;;;;1.17;1.08;;;21.40;99.90;;;;;;5061666;28;20047;-68
2022/07/21 00:32:43;;;;;;;0.77;0.77;;;21.40;99.90;;;;;;5074048;28;20052;-68
2022/07/21 00:35:09;;;;;;;5.65;2.25;;;21.40;99.90;;;;;;5035376;28;20068;-67
2022/07/21 00:37:36;;;;;;;0.77;0.77;;;21.40;99.90;;;;;;5048528;28;20053;-67
2022/07/21 00:40:02;;;;;;;1.10;0.93;;;21.50;99.90;;;;;;5046546;28;21964;-67
2022/07/21 00:42:30;;;;;;;1.48;1.38;;;21.60;99.90;;;;;;5053150;28;20565;-67
2022/07/21 00:44:56;;;;;;;0.20;0.20;;;21.50;99.90;;;;;;5051553;28;20040;-67
2022/07/21 00:47:28;;;;;;;3.28;1.50;;;21.50;99.90;;;;;;5073811;28;20121;-67
2022/07/21 00:49:55;;;;;;;0.10;0.10;;;21.40;99.90;;;;;;5066394;28;20048;-68
2022/07/21 00:52:21;;;;;;;2.70;0.60;;;21.40;99.90;;;;;;5036470;28;20151;-67
2022/07/21 00:54:47;;;;;;;0.90;0.90;;;21.40;99.90;;;;;;5047335;28;20068;-67
2022/07/21 00:57:13;;;;;;;0.90;0.43;;;21.30;99.90;;;;;;5055065;28;20064;-67
2022/07/21 00:59:39;;;;;;;0.28;0.28;;;21.30;99.90;;;;;;5049522;28;20480;-67
2022/07/21 01:02:05;;;;;;;1.27;0.95;;;21.40;99.90;;;;;;5037672;28;20166;-67
2022/07/21 01:04:31;;;;;;;1.90;0.75;;;21.40;99.90;;;;;;5035614;28;20128;-67
2022/07/21 01:06:59;;;;;;;0.20;0.20;;;21.40;99.90;;;;;;5062931;28;20063;-67
2022/07/21 01:09:25;;;;;;;0.73;0.73;;;21.50;99.90;;;;;;5048355;28;20045;-67
2022/07/21 01:11:51;;;;;;;0.77;0.77;;;21.40;99.90;;;;;;5068864;28;20483;-67
2022/07/21 01:14:17;;;;;;;0.40;0.40;;;21.40;99.90;;;;;;5042113;28;20115;-67
2022/07/21 01:16:43;;;;;;;0.47;0.47;;;21.40;99.90;;;;;;5066992;28;20178;-67
2022/07/21 01:19:09;;;;;;;3.03;1.95;;;21.30;99.90;;;;;;5057194;28;20048;-67
2022/07/21 01:21:37;;;;;;;1.38;0.82;;;21.30;99.90;;;;;;5059651;28;20135;-67
2022/07/21 01:24:04;;;;;;;5.75;1.42;;;21.30;99.90;;;;;;5070819;28;20491;-67
2022/07/21 01:26:30;;;;;;;0.85;0.85;;;21.30;99.90;;;;;;5076706;28;20048;-67
2022/07/21 01:28:57;;;;;;;4.32;1.70;;;21.40;99.90;;;;;;5050652;28;20439;-67
2022/07/21 01:31:23;;;;;;;0.40;0.40;;;21.40;99.90;;;;;;5057011;28;20406;-67
2022/07/21 01:33:49;;;;;;;3.35;1.17;;;21.20;99.90;;;;;;5049956;28;20048;-68
2022/07/21 01:36:15;;;;;;;4.63;1.45;;;21.30;99.90;;;;;;5056885;28;20047;-68
2022/07/21 01:41:32;;;;;;;5.35;1.42;;;21.30;99.90;;;;;;5057895;28;20041;-67
2022/07/21 01:44:00;;;;;;;0.80;0.80;;;21.30;99.90;;;;;;5050694;28;20053;-67
2022/07/21 01:46:28;;;;;;;0.28;0.28;;;21.30;99.90;;;;;;5076433;28;20044;-67
2022/07/21 01:48:53;;;;;;;0.38;0.38;;;21.30;99.90;;;;;;5055070;28;20044;-67
2022/07/21 01:51:19;;;;;;;0.40;0.40;;;21.30;99.90;;;;;;5068577;28;20051;-68
2022/07/21 01:53:44;;;;;;;1.27;1.17;;;21.30;99.90;;;;;;5055247;28;20048;-68
2022/07/21 01:56:10;;;;;;;1.10;1.02;;;21.20;99.90;;;;;;5066971;28;20052;-68
2022/07/21 01:58:36;;;;;;;0.25;0.25;;;21.20;99.90;;;;;;5067748;28;20119;-67
2022/07/21 02:01:01;;;;;;;0.40;0.40;;;21.30;99.90;;;;;;5078572;28;20123;-68
2022/07/21 02:03:27;;;;;;;0.80;0.80;;;21.30;99.90;;;;;;5050273;28;20041;-68
2022/07/21 02:05:52;;;;;;;0.60;0.60;;;21.30;99.90;;;;;;5062577;28;20064;-68
2022/07/21 02:08:18;;;;;;;0.35;0.35;;;21.30;99.90;;;;;;5072339;28;20053;-67
2022/07/21 02:10:43;;;;;;;1.25;1.15;;;21.20;99.90;;;;;;5046165;28;20044;-68
2022/07/21 02:13:09;;;;;;;0.50;0.50;;;21.30;99.90;;;;;;5068497;28;20411;-67
2022/07/21 02:15:34;;;;;;;2.72;1.25;;;21.30;99.90;;;;;;5078807;28;20044;-68
2022/07/21 02:18:00;;;;;;;1.33;1.10;;;21.20;99.90;;;;;;5070368;28;20124;-68
2022/07/21 02:20:26;;;;;;;0.98;0.98;;;21.20;99.90;;;;;;5068544;28;20067;-68
2022/07/21 02:22:52;;;;;;;2.10;1.25;;;21.10;99.90;;;;;;5078086;28;20040;-68
2022/07/21 02:25:18;;;;;;;0.68;0.68;;;21.20;99.90;;;;;;5043008;28;20526;-68
2022/07/21 02:27:45;;;;;;;2.15;0.82;;;21.20;99.90;;;;;;5059909;28;20047;-68
2022/07/21 02:30:12;;;;;;;10.73;0.55;;;21.10;99.90;;;;;;5060812;28;20040;-69
2022/07/21 02:32:38;;;;;;;0.55;0.55;;;21.10;99.90;;;;;;5051101;28;20446;-68
2022/07/21 02:35:05;;;;;;;0.35;0.35;;;21.20;99.90;;;;;;5059323;28;20045;-68
2022/07/21 02:37:30;;;;;;;0.77;0.77;;;21.10;99.90;;;;;;5070646;28;20044;-68
2022/07/21 02:39:56;;;;;;;1.63;1.52;;;21.00;99.90;;;;;;5068986;28;20046;-68
2022/07/21 02:42:21;;;;;;;2.15;1.95;;;21.00;99.90;;;;;;5063877;28;20120;-68
2022/07/21 02:44:47;;;;;;;1.52;1.13;;;21.00;99.90;;;;;;5067155;28;20036;-68
2022/07/21 02:47:13;;;;;;;2.53;1.77;;;21.00;99.90;;;;;;5067623;28;20071;-68
2022/07/21 02:49:38;;;;;;;0.20;0.20;;;21.00;99.90;;;;;;5050009;28;20048;-68
2022/07/21 02:52:05;;;;;;;0.63;0.40;;;20.90;99.90;;;;;;5055990;28;20048;-68
2022/07/21 02:54:31;;;;;;;0.20;0.20;;;21.00;99.90;;;;;;5075584;28;20048;-68
2022/07/21 02:56:56;;;;;;;3.42;0.80;;;20.90;99.90;;;;;;5080365;28;20055;-68
2022/07/21 02:59:22;;;;;;;1.98;1.40;;;20.90;99.90;;;;;;5066674;28;20491;-68
2022/07/21 03:01:48;;;;;;;0.93;0.85;;;20.80;99.90;;;;;;5080226;28;20039;-67
2022/07/21 03:04:14;;;;;;;0.60;0.60;;;20.90;99.90;;;;;;5074265;28;20170;-69
2022/07/21 03:06:40;;;;;;;0.30;0.30;;;20.90;99.90;;;;;;5026362;28;20497;-69
2022/07/21 03:09:06;;;;;;;0.30;0.22;;;20.90;99.90;;;;;;5024439;28;20444;-69
2022/07/21 03:11:31;;;;;;;3.25;1.45;;;20.90;99.90;;;;;;5028333;28;20068;-69
2022/07/21 03:13:57;;;;;;;0.98;0.93;;;20.80;99.90;;;;;;5025932;28;20049;-69
2022/07/21 03:16:22;;;;;;;0.38;0.28;;;20.80;99.90;;;;;;5019019;28;20037;-69
2022/07/21 03:18:48;;;;;;;0.20;0.20;;;20.80;99.90;;;;;;5032928;28;20049;-69
2022/07/21 03:21:14;;;;;;;0.90;0.85;;;20.90;99.90;;;;;;5034812;28;20551;-69
2022/07/21 03:23:39;;;;;;;1.38;0.80;;;20.90;99.90;;;;;;5018878;28;20054;-69
2022/07/21 03:26:05;;;;;;;1.67;1.58;;;20.90;99.90;;;;;;5029686;28;20636;-69
2022/07/21 03:28:30;;;;;;;0.43;0.43;;;20.80;99.90;;;;;;5029815;28;20384;-69
2022/07/21 03:30:56;;;;;;;0.30;0.30;;;20.80;99.90;;;;;;5015137;28;20064;-69
2022/07/21 03:33:22;;;;;;;2.58;1.05;;;20.80;99.90;;;;;;5025160;28;20374;-68
2022/07/21 03:35:47;;;;;;;0.82;0.80;;;20.70;99.90;;;;;;5018101;28;20103;-68
2022/07/21 03:38:13;;;;;;;0.00;0.00;;;20.70;99.90;;;;;;5027911;28;20034;-68
2022/07/21 03:40:40;;;;;;;0.40;0.40;;;20.60;99.90;;;;;;5023002;28;20308;-69
2022/07/21 03:43:08;;;;;;;3.28;0.50;;;20.70;99.90;;;;;;5024864;28;20084;-69
2022/07/21 03:45:35;;;;;;;1.40;0.60;;;20.60;99.90;;;;;;5015186;28;20046;-68
2022/07/21 03:48:03;;;;;;;0.30;0.30;;;20.60;99.90;;;;;;5027363;28;20092;-68
2022/07/21 03:50:30;;;;;;;0.52;0.43;;;20.60;99.90;;;;;;5016041;28;20090;-68
2022/07/21 03:52:55;;;;;;;0.73;0.45;;;20.70;99.90;;;;;;5024058;28;20045;-69
2022/07/21 03:55:21;;;;;;;0.70;0.70;;;20.70;99.90;;;;;;5032261;28;20033;-69
2022/07/21 03:58:07;;;;;;;0.93;0.88;;;20.70;99.90;;;;;;5034001;28;20099;-68
2022/07/21 04:00:36;;;;;;;2.25;1.92;;;20.70;99.90;;;;;;5034954;28;20559;-69
2022/07/21 04:03:02;;;;;;;0.45;0.32;;;20.60;99.90;;;;;;5029191;28;20588;-69
2022/07/21 04:05:28;;;;;;;0.63;0.63;;;20.60;99.90;;;;;;5050091;28;20067;-69
2022/07/21 04:07:54;;;;;;;0.38;0.38;;;20.60;99.90;;;;;;5059913;28;20098;-69
2022/07/21 04:10:29;;;;;;;0.52;0.52;;;20.60;99.90;;;;;;5049507;28;20041;-69
2022/07/21 04:12:57;;;;;;;0.22;0.22;;;20.60;99.90;;;;;;5052961;28;20161;-69
2022/07/21 04:15:23;;;;;;;1.35;0.50;;;20.50;99.90;;;;;;5032436;28;20049;-69
2022/07/21 04:17:50;;;;;;;0.52;0.52;;;20.50;99.90;;;;;;5039205;28;20067;-68
2022/07/21 04:20:16;;;;;;;0.35;0.35;;;20.50;99.90;;;;;;5067719;28;20049;-69
2022/07/21 04:22:43;;;;;;;0.77;0.73;;;20.50;99.90;;;;;;5065063;28;20062;-69
2022/07/21 04:25:09;;;;;;;1.42;1.33;;;20.50;99.90;;;;;;5061452;28;20454;-69
2022/07/21 04:27:36;;;;;;;3.20;0.82;;;20.60;99.90;;;;;;5068654;28;20049;-68
2022/07/21 04:30:04;;;;;;;0.10;0.10;;;20.50;99.90;;;;;;5066837;28;20047;-68
2022/07/21 04:32:30;;;;;;;1.70;1.60;;;20.60;99.90;;;;;;5044519;28;20092;-68
2022/07/21 04:34:55;;;;;;;9.43;1.70;;;20.60;99.90;;;;;;5074077;28;20091;-68
2022/07/21 04:37:21;;;;;;;1.35;0.68;;;20.60;99.90;;;;;;5055659;28;20044;-69
2022/07/21 04:39:47;;;;;;;1.60;1.50;;;20.60;99.90;;;;;;5076429;28;20052;-69
2022/07/21 04:42:13;;;;;;;2.42;1.52;;;20.60;99.90;;;;;;5059803;28;20046;-69
2022/07/21 04:44:38;;;;;;;0.73;0.73;;;20.60;99.90;;;;;;5053795;28;20131;-69
2022/07/21 04:47:04;;;;;;;2.17;0.82;;;20.50;99.90;;;;;;5048903;28;20049;-68
2022/07/21 04:49:29;;;;;;;4.05;2.03;;;20.60;99.90;;;;;;5060958;28;20438;-67
2022/07/21 04:51:55;;;;;;;0.90;0.68;;;20.60;99.90;;;;;;5075337;28;20102;-68
2022/07/21 04:54:21;;;;;;;2.33;0.75;;;20.60;99.90;;;;;;5062607;28;20033;-68
2022/07/21 04:56:47;;;;;;;5.13;1.48;;;20.70;99.90;;;;;;5066393;28;20046;-68
2022/07/21 04:59:13;;;;;;;0.65;0.55;;;20.60;99.90;;;;;;5059371;28;20044;-68
2022/07/21 05:01:39;;;;;;;1.70;1.38;;;20.60;99.90;;;;;;5046953;28;20044;-68
2022/07/21 05:04:05;;;;;;;0.32;0.32;;;20.60;99.90;;;;;;5067448;28;20041;-68
2022/07/21 05:06:31;;;;;;;1.38;1.02;;;20.60;99.90;;;;;;5071154;28;20048;-68
2022/07/21 05:08:57;;;;;;;1.20;1.05;;;20.60;99.90;;;;;;5082544;28;20036;-67
2022/07/21 05:11:23;;;;;;;0.55;0.28;;;20.60;99.90;;;;;;5070914;28;20563;-66
2022/07/21 05:13:49;;;;;;;0.30;0.30;;;20.60;99.90;;;;;;5054981;28;20041;-68
2022/07/21 05:16:14;;;;;;;1.80;1.35;;;20.60;99.90;;;;;;5046356;28;20057;-68
2022/07/21 05:18:40;;;;;;;0.50;0.50;;;20.50;99.90;;;;;;5047015;28;20049;-68
2022/07/21 05:21:05;;;;;;;3.25;0.98;;;20.60;99.90;;;;;;5086813;28;20395;-68
2022/07/21 05:23:31;;;;;;;3.92;1.05;;;20.60;99.90;;;;;;5052836;28;20048;-68
2022/07/21 05:25:57;;;;;;;0.20;0.20;;;20.60;99.90;;;;;;5072068;28;20051;-68
2022/07/21 05:28:22;;;;;;;0.65;0.65;;;20.60;99.90;;;;;;5079800;28;20040;-68
2022/07/21 05:30:48;;;;;;;0.20;0.20;;;20.70;99.90;;;;;;5061311;28;20048;-68
2022/07/21 05:33:13;;;;;;;0.85;0.85;;;20.60;99.90;;;;;;5067222;28;20035;-68
2022/07/21 05:35:39;;;;;;;0.25;0.20;;;20.50;99.90;;;;;;5065889;28;20130;-68
2022/07/21 05:38:05;;;;;;;0.45;0.45;;;20.50;99.90;;;;;;5047995;28;20093;-68
2022/07/21 05:40:30;;;;;;;0.47;0.47;;;20.50;99.90;;;;;;5084643;28;20083;-68
2022/07/21 05:42:56;;;;;;;0.20;0.20;;;20.50;99.90;;;;;;5040174;28;20059;-68
2022/07/21 05:45:21;;;;;;;0.60;0.30;;;20.60;99.90;;;;;;5060125;28;20586;-68
2022/07/21 05:47:47;;;;;;;1.27;1.13;;;20.60;99.90;;;;;;5064236;28;20445;-68
2022/07/21 05:50:13;;;;;;;0.75;0.63;;;20.60;99.90;;;;;;5068364;28;20568;-68
2022/07/21 05:52:39;;;;;;;2.38;1.02;;;20.60;99.90;;;;;;5066915;28;20044;-68
2022/07/21 05:55:06;;;;;;;0.40;0.40;;;20.60;99.90;;;;;;5065044;28;20496;-68
2022/07/21 05:57:32;;;;;;;0.57;0.57;;;20.60;99.90;;;;;;5076015;28;20125;-68
2022/07/21 05:59:58;;;;;;;0.03;0.03;;;20.60;99.90;;;;;;5048738;28;20492;-68
2022/07/21 06:02:24;;;;;;;0.30;0.30;;;20.70;99.90;;;;;;5059853;28;20484;-68
2022/07/21 06:04:50;;;;;;;0.10;0.10;;;20.70;99.90;;;;;;5091564;28;20067;-68
2022/07/21 06:07:16;;;;;;;4.97;1.88;;;20.70;99.90;;;;;;5076989;28;20049;-68
2022/07/21 06:09:42;;;;;;;0.15;0.15;;;20.70;99.90;;;;;;5083054;28;20135;-68
2022/07/21 06:12:07;;;;;;;2.83;1.45;;;20.70;99.90;;;;;;5057194;28;20121;-68
2022/07/21 06:14:33;;;;;;;7.35;0.90;;;20.70;99.90;;;;;;5042411;28;20533;-68
2022/07/21 06:16:58;;;;;;;0.00;0.00;;;20.70;99.90;;;;;;5062276;28;20045;-68
2022/07/21 06:19:24;;;;;;;0.20;0.17;;;20.70;99.90;;;;;;5082989;28;20097;-68
2022/07/21 06:21:50;;;;;;;0.10;0.10;;;20.80;99.90;;;;;;5071614;28;20465;-68
2022/07/21 06:24:15;;;;;;;13.63;0.65;;;20.80;99.90;;;;;;5074522;28;20056;-68
2022/07/21 06:26:41;;;;;;;0.00;0.00;;;20.80;99.90;;;;;;5057122;28;20097;-68
2022/07/21 06:29:07;;;;;;;0.10;0.10;;;20.80;99.90;;;;;;5046730;28;20048;-68
2022/07/21 06:31:33;;;;;;;0.52;0.50;;;20.80;99.90;;;;;;5058009;28;20681;-68
2022/07/21 06:33:59;;;;;;;2.72;0.30;;;20.80;99.90;;;;;;5080008;28;20439;-68
2022/07/21 06:36:24;;;;;;;0.15;0.15;;;20.80;99.90;;;;;;5071552;28;20032;-69
2022/07/21 06:38:50;;;;;;;0.20;0.20;;;20.80;99.90;;;;;;5084526;28;20043;-68
2022/07/21 06:41:15;;;;;;;0.13;0.13;;;20.70;99.90;;;;;;5049972;28;20048;-68
2022/07/21 06:43:41;;;;;;;0.45;0.45;;;20.80;99.90;;;;;;5036908;28;20053;-68
2022/07/21 06:46:07;;;;;;;0.90;0.38;;;20.70;99.90;;;;;;5056100;28;20072;-68
2022/07/21 06:48:32;;;;;;;0.20;0.20;;;20.80;99.90;;;;;;5050233;28;20055;-68
2022/07/21 06:50:58;;;;;;;0.40;0.40;;;20.80;99.90;;;;;;5066747;28;20404;-68
2022/07/21 06:53:24;;;;;;;0.00;0.00;;;20.80;99.90;;;;;;5069331;28;20040;-69
2022/07/21 06:55:53;;;;;;;0.43;0.40;;;20.70;99.90;;;;;;5068244;28;20048;-68
2022/07/21 06:58:22;;;;;;;0.30;0.25;;;20.80;99.90;;;;;;5054183;28;20051;-68
2022/07/21 07:00:49;;;;;;;0.32;0.25;;;20.70;99.90;;;;;;5068323;28;20048;-69
2022/07/21 07:03:16;;;;;;;0.73;0.32;;;20.80;99.90;;;;;;5069683;28;20055;-69
2022/07/21 07:05:43;;;;;;;0.63;0.57;;;20.80;99.90;;;;;;5069038;28;20056;-69
2022/07/21 07:08:10;;;;;;;2.05;0.98;;;20.80;99.90;;;;;;5067931;28;20036;-68
2022/07/21 07:10:35;;;;;;;0.98;0.95;;;20.80;99.90;;;;;;5046573;28;20086;-68
2022/07/21 07:13:01;;;;;;;0.20;0.20;;;20.80;99.90;;;;;;5080621;28;20479;-68
2022/07/21 07:15:27;;;;;;;0.30;0.28;;;20.70;99.90;;;;;;5065686;28;20056;-69
2022/07/21 07:17:53;;;;;;;0.50;0.50;;;20.80;99.90;;;;;;5049726;28;20477;-69
2022/07/21 07:20:19;;;;;;;0.35;0.35;;;20.80;99.90;;;;;;5086835;28;20047;-69
2022/07/21 07:22:45;;;;;;;1.05;0.98;;;20.70;99.90;;;;;;5072025;28;20044;-69
2022/07/21 07:25:11;;;;;;;0.20;0.20;;;20.80;99.90;;;;;;5055670;28;20606;-69
2022/07/21 07:27:36;;;;;;;0.20;0.20;;;20.80;99.90;;;;;;5048147;28;20048;-69
2022/07/21 07:30:03;;;;;;;0.55;0.55;;;20.80;99.90;;;;;;5077695;28;20071;-69
2022/07/21 07:32:28;;;;;;;0.40;0.40;;;20.70;99.90;;;;;;5088688;28;20044;-69
2022/07/21 07:34:54;;;;;;;0.35;0.35;;;20.70;99.90;;;;;;5088318;28;20565;-69
2022/07/21 07:37:19;;;;;;;0.65;0.65;;;20.70;99.90;;;;;;5070244;28;20044;-69
2022/07/21 07:39:45;;;;;;;0.20;0.20;;;20.80;99.90;;;;;;5065712;28;20043;-69
2022/07/21 07:42:11;;;;;;;0.30;0.25;;;20.70;99.90;;;;;;5051964;28;20056;-69
2022/07/21 07:44:36;;;;;;;1.63;0.77;;;20.70;99.90;;;;;;5049239;28;20053;-69
2022/07/21 07:47:02;;;;;;;1.65;0.90;;;20.70;99.90;;;;;;5030373;28;20052;-69
2022/07/21 07:49:31;;;;;;;0.77;0.77;;;20.70;99.90;;;;;;5081561;28;20387;-69
2022/07/21 07:51:58;;;;;;;0.10;0.10;;;20.70;99.90;;;;;;5089321;28;20078;-69
2022/07/21 07:54:24;;;;;;;0.50;0.50;;;20.70;99.90;;;;;;5088618;28;20036;-69
2022/07/21 07:56:50;;;;;;;0.95;0.93;;;20.70;99.90;;;;;;5049376;28;20478;-69
2022/07/21 07:59:16;;;;;;;0.80;0.80;;;20.80;99.90;;;;;;5063869;28;20075;-69
2022/07/21 08:01:41;;;;;;;2.42;1.40;;;20.70;99.90;;;;;;5088120;28;20071;-69
2022/07/21 08:04:07;;;;;;;0.10;0.10;;;20.70;99.90;;;;;;5088981;28;20052;-69
2022/07/21 08:06:33;;;;;;;0.55;0.20;;;20.70;99.90;;;;;;5087742;28;20052;-69
2022/07/21 08:08:59;;;;;;;0.28;0.28;;;20.70;99.90;;;;;;5088267;28;20040;-68
2022/07/21 08:11:25;;;;;;;0.55;0.55;;;20.60;99.90;;;;;;5088838;28;20123;-67
2022/07/21 08:13:52;;;;;;;0.45;0.45;;;20.60;99.90;;;;;;5087998;28;20044;-67
2022/07/21 08:16:17;;;;;;;3.80;1.17;;;20.60;99.90;;;;;;5081501;28;20497;-67
2022/07/21 08:18:43;;;;;;;0.73;0.68;;;20.70;99.90;;;;;;5081519;28;20090;-67
2022/07/21 08:21:10;;;;;;;3.28;1.02;;;20.70;99.90;;;;;;5070313;28;20487;-67
2022/07/21 08:23:36;;;;;;;0.30;0.30;;;20.70;99.90;;;;;;5075574;28;20130;-67
2022/07/21 08:26:02;;;;;;;1.10;0.95;;;20.70;99.90;;;;;;5052930;28;20052;-67
2022/07/21 08:28:27;;;;;;;1.00;0.60;;;20.80;99.90;;;;;;5070546;28;20041;-68
2022/07/21 08:30:53;;;;;;;0.10;0.10;;;20.80;99.90;;;;;;5057939;28;20098;-68
2022/07/21 08:33:19;;;;;;;1.25;1.15;;;20.80;99.90;;;;;;5036064;28;20094;-68
2022/07/21 08:35:45;;;;;;;0.20;0.20;;;20.80;99.90;;;;;;5065393;28;20105;-68
2022/07/21 08:38:11;;;;;;;1.55;0.63;;;20.80;99.90;;;;;;5047594;28;20101;-68
2022/07/21 08:40:43;;;;;;;0.50;0.50;;;20.90;99.90;;;;;;5070424;28;20394;-68
2022/07/21 08:43:09;;;;;;;2.03;0.90;;;20.90;99.90;;;;;;5061888;28;20040;-68
2022/07/21 08:45:36;;;;;;;0.38;0.38;;;21.00;99.90;;;;;;5088510;28;20037;-68
2022/07/21 08:48:02;;;;;;;1.38;0.45;;;21.10;99.90;;;;;;5075123;28;20044;-68
2022/07/21 08:50:34;;;;;;;0.20;0.20;;;21.20;99.90;;;;;;5049771;28;20105;-68
2022/07/21 08:53:00;;;;;;;1.15;1.15;;;21.10;99.90;;;;;;5049659;28;20087;-68
2022/07/21 08:55:32;;;;;;;3.97;0.40;;;21.10;99.90;;;;;;5057113;28;20484;-68
2022/07/21 08:57:58;;;;;;;5.53;0.88;;;21.00;99.90;;;;;;5047194;28;20052;-69
2022/07/21 09:00:24;;;;;;;0.75;0.73;;;21.10;99.90;;;;;;5048080;28;20049;-68
2022/07/21 09:03:07;;;;;;;0.90;0.82;;;20.90;99.90;;;;;;5060936;28;20170;-67
2022/07/21 09:05:32;;;;;;;0.68;0.68;;;20.90;99.90;;;;;;5047324;28;20397;-67
2022/07/21 09:07:58;;;;;;;0.32;0.32;;;20.80;99.90;;;;;;5055256;28;20037;-68
2022/07/21 09:10:26;;;;;;;1.10;1.05;;;20.80;99.90;;;;;;5075874;28;20042;-68
2022/07/21 09:12:58;;;;;;;0.65;0.65;;;20.70;99.90;;;;;;5085137;28;20044;-68
2022/07/21 09:15:25;;;;;;;0.60;0.60;;;20.50;99.90;;;;;;5068089;28;20072;-69
2022/07/21 09:18:14;;;;;;;1.60;1.45;;;20.40;99.90;;;;;;5074393;28;20618;-69
2022/07/21 09:20:48;;;;;;;0.20;0.20;;;20.30;99.90;;;;;;5069971;28;20056;-69
2022/07/21 09:23:16;;;;;;;0.88;0.73;;;20.40;99.90;;;;;;5077935;28;20076;-69
2022/07/21 09:25:45;;;;;;;0.80;0.70;;;20.30;99.90;;;;;;5062000;28;20044;-69
2022/07/21 09:28:14;;;;;;;0.15;0.15;;;20.30;99.90;;;;;;5072751;28;20579;-69
2022/07/21 09:30:57;;;;;;;2.90;0.25;;;20.30;99.90;;;;;;5067700;28;20079;-69
2022/07/21 09:33:25;;;;;;;;;;;20.20;99.90;;;;;;5049756;28;20105;-70
2022/07/21 09:36:04;;;;;;;0.88;0.80;;;20.30;99.90;;;;;;5054505;28;19925;-69
2022/07/21 09:38:33;;;;;;;2.58;1.05;;;20.20;99.90;;;;;;5049011;28;20508;-69
2022/07/21 09:41:06;;;;;;;3.38;0.70;;;20.30;99.90;;;;;;5078219;28;20063;-69
2022/07/21 09:43:33;;;;;;;;;;;20.30;99.90;;;;;;5069981;28;20048;-68
2022/07/21 09:46:03;;;;;;;2.53;0.65;;;20.30;99.90;;;;;;5071031;28;20717;-68
2022/07/21 09:48:36;;;;;;;3.92;1.02;;;20.30;99.90;;;;;;5066095;28;20041;-69
2022/07/21 09:51:26;;;;;;;0.45;0.45;;;20.20;99.90;;;;;;5080781;28;20055;-68
2022/07/21 09:54:02;;;;;;;1.58;1.48;;;20.20;99.90;;;;;;5058943;28;20045;-68
2022/07/21 09:56:31;;;;;;;0.05;0.05;;;20.20;99.90;;;;;;5078282;28;20047;-68
2022/07/21 09:58:58;;;;;;;0.08;0.08;;;20.20;99.90;;;;;;5053104;28;20080;-68
2022/07/21 10:01:26;;;;;;;0.98;0.40;;;20.10;99.90;;;;;;5070428;28;20045;-68
2022/07/21 10:03:54;;;;;;;0.03;0.03;;;20.10;99.90;;;;;;5071288;28;20047;-67
2022/07/21 10:06:25;;;;;;;0.43;0.43;;;20.20;99.90;;;;;;5071153;28;20052;-67
2022/07/21 10:08:51;;;;;;;0.17;0.17;;;20.20;99.90;;;;;;5070791;28;20076;-67
2022/07/21 10:11:17;;;;;;;0.00;0.00;;;20.10;99.90;;;;;;5075298;28;20505;-67
2022/07/21 10:13:43;;;;;;;0.30;0.30;;;20.10;99.90;;;;;;5064506;28;20155;-67
2022/07/21 10:16:11;;;;;;;0.47;0.47;;;20.10;99.90;;;;;;5088452;28;20048;-68
2022/07/21 10:18:44;;;;;;;0.55;0.55;;;20.10;99.90;;;;;;5065758;28;20068;-68
2022/07/21 10:21:19;;;;;;;;;;;20.10;99.90;;;;;;5083577;28;20048;-67
2022/07/21 10:23:45;;;;;;;0.20;0.20;;;20.10;99.90;;;;;;5080068;28;19924;-68
2022/07/21 10:26:11;;;;;;;1.20;0.47;;;20.10;99.90;;;;;;5067574;28;20093;-68
2022/07/21 10:28:37;;;;;;;0.43;0.43;;;20.10;99.90;;;;;;5071247;28;20499;-68
2022/07/21 10:31:17;;;;;;;0.30;0.30;;;20.10;99.90;;;;;;5071196;28;20067;-68
2022/07/21 10:33:45;;;;;;;0.28;0.28;;;20.10;99.90;;;;;;5087718;28;20430;-68
2022/07/21 10:36:34;;;;;;;0.50;0.47;;;20.10;99.90;;;;;;5068313;28;20048;-69
2022/07/21 10:39:08;;;;;;;0.35;0.35;;;20.00;99.90;;;;;;5065337;28;20377;-69
2022/07/21 10:41:42;;;;;;;0.15;0.15;;;20.10;99.90;;;;;;5071050;28;20075;-69
2022/07/21 10:44:28;;;;;;;0.40;0.35;;;20.10;99.90;;;;;;5068199;28;20517;-69
2022/07/21 10:47:03;;;;;;;0.17;0.15;;;20.10;99.90;;;;;;5069419;28;20052;-69
2022/07/21 10:49:49;;;;;;;0.68;0.65;;;20.20;99.90;;;;;;5069659;28;20105;-68
2022/07/21 10:52:56;;;;;;;0.90;0.52;;;20.20;99.90;;;;;;5079893;28;20040;-68
2022/07/21 10:55:25;;;;;;;0.20;0.20;;;20.20;99.90;;;;;;5007022;28;20104;-68
2022/07/21 10:58:16;;;;;;;1.67;0.52;;;20.30;99.90;;;;;;5040094;28;20052;-68
2022/07/21 11:00:51;;;;;;;0.13;0.13;;;20.40;99.90;;;;;;5089889;28;20044;-68
2022/07/21 11:03:18;;;;;;;0.00;0.00;;;20.50;99.90;;;;;;5071903;28;20060;-68
2022/07/21 11:06:06;;;;;;;0.00;0.00;;;20.50;99.90;;;;;;5056264;28;20471;-69
2022/07/21 11:08:36;;;;;;;0.10;0.10;;;20.50;99.90;;;;;;5043805;28;20061;-68
2022/07/21 11:11:20;;;;;;;0.30;0.30;;;20.60;99.90;;;;;;5059734;28;20091;-68
2022/07/21 11:14:03;;;;;;;0.08;0.08;;;20.60;99.90;;;;;;5076308;28;20090;-68
2022/07/21 11:16:49;;;;;;;0.50;0.40;;;20.50;99.90;;;;;;5088657;28;20407;-68
2022/07/21 11:19:45;;;;;;;0.13;0.13;;;20.70;99.90;;;;;;5074002;28;20052;-68
2022/07/21 11:22:14;;;;;;;0.00;0.00;;;20.70;99.90;;;;;;5056693;28;20063;-68
2022/07/21 11:24:44;;;;;;;0.50;0.50;;;20.70;99.90;;;;;;5039596;28;20040;-67
2022/07/21 11:27:13;;;;;;;0.13;0.13;;;20.70;99.90;;;;;;5041550;28;20058;-67
2022/07/21 11:29:41;;;;;;;0.20;0.20;;;20.80;99.90;;;;;;5073832;28;20048;-67
2022/07/21 11:32:09;;;;;;;0.13;0.13;;;20.70;99.90;;;;;;5077971;28;20486;-67
2022/07/21 11:34:39;;;;;;;0.40;0.40;;;20.70;99.90;;;;;;5038721;28;20726;-68
2022/07/21 11:37:04;;;;;;;0.13;0.13;;;20.80;99.90;;;;;;5049354;28;20072;-68
2022/07/21 11:39:30;;;;;;;0.20;0.20;;;20.80;99.90;;;;;;5043727;28;20076;-68
2022/07/21 11:42:12;;;;;;;0.00;0.00;;;20.80;99.90;;;;;;5069420;28;20044;-68
2022/07/21 11:44:39;;;;;;;0.50;0.47;;;20.80;99.90;;;;;;5067459;28;20094;-68
2022/07/21 11:47:06;;;;;;;0.20;0.20;;;20.90;99.90;;;;;;5044223;28;20048;-68
2022/07/21 11:49:33;;;;;;;0.43;0.43;;;20.80;99.90;;;;;;5082304;28;20043;-67
2022/07/21 11:52:03;;;;;;;0.22;0.22;;;20.80;99.90;;;;;;5081004;28;20082;-67
2022/07/21 11:54:30;;;;;;;0.30;0.30;;;20.80;99.90;;;;;;5053617;28;20044;-68
2022/07/21 11:56:58;;;;;;;0.75;0.28;;;20.80;99.90;;;;;;5080137;28;20036;-67
2022/07/21 11:59:24;;;;;;;0.25;0.25;;;20.70;99.90;;;;;;5089034;28;20191;-68
2022/07/21 12:01:57;;;;;;;0.60;0.60;;;20.80;99.90;;;;;;5075953;28;20054;-68
2022/07/21 12:04:35;;;;;;;0.98;0.40;;;20.70;99.90;;;;;;5041300;28;20762;-69
2022/07/21 12:07:03;;;;;;;0.15;0.15;;;20.70;99.90;;;;;;5043008;28;20048;-68
2022/07/21 12:09:29;;;;;;;0.00;0.00;;;20.70;99.90;;;;;;5068619;28;20056;-68
2022/07/21 12:11:54;;;;;;;0.17;0.17;;;20.60;99.90;;;;;;5079612;28;20188;-68
2022/07/21 12:14:22;;;;;;;0.75;0.75;;;20.70;99.90;;;;;;5060027;28;20040;-68
2022/07/21 12:16:53;;;;;;;0.10;0.10;;;20.60;99.90;;;;;;5084326;28;20045;-69
2022/07/21 12:19:20;;;;;;;0.20;0.20;;;20.60;99.90;;;;;;5071660;28;20047;-69
2022/07/21 12:21:53;;;;;;;0.20;0.20;;;20.60;99.90;;;;;;5066867;28;20040;-69
2022/07/21 12:24:21;;;;;;;0.00;0.00;;;20.50;99.90;;;;;;5067787;28;20097;-69
2022/07/21 12:26:47;;;;;;;0.20;0.20;;;20.50;99.90;;;;;;5049439;28;20052;-69
2022/07/21 12:29:28;;;;;;;0.08;0.08;;;20.50;99.90;;;;;;5048684;28;20555;-69
2022/07/21 12:31:54;;;;;;;1.70;1.00;;;20.50;99.90;;;;;;5064587;28;20048;-69
2022/07/21 12:34:20;;;;;;;0.00;0.00;;;20.50;99.90;;;;;;5073682;28;20062;-68
2022/07/21 12:36:47;;;;;;;0.63;0.20;;;20.60;99.90;;;;;;5069266;28;20663;-69
2022/07/21 12:42:31;;;;;;;0.03;0.03;;;20.60;99.90;;;;;;5080624;28;20040;-67
2022/07/21 12:44:58;;;;;;;0.10;0.10;;;20.60;99.90;;;;;;5084289;28;20044;-69
2022/07/21 12:47:24;;;;;;;0.10;0.10;;;20.60;99.90;;;;;;5067963;28;20135;-69
2022/07/21 12:50:04;;;;;;;0.10;0.10;;;20.60;99.90;;;;;;5067847;28;20558;-69
2022/07/21 12:52:30;;;;;;;3.33;0.40;;;20.60;99.90;;;;;;5059697;28;20561;-69
2022/07/21 12:54:58;;;;;;;0.38;0.38;;;20.60;99.90;;;;;;5088425;28;20889;-69
2022/07/21 12:57:32;;;;;;;0.63;0.47;;;20.70;99.90;;;;;;5066474;28;20043;-69